Paincourtville, LA (70391)

8:42 AM CST on December 18, 2014 (GMT -0600)
plattenville | Change Station
CLOSE
Current Station
Personal Weather Station
Location: Napoleonville, LA
Elevation: 23 ft
Nearby Weather Stations

Elev 23 ft 29.96 °N, 91.02 °W | Updated 1 minute ago

Mostly Cloudy
Mostly Cloudy
56.8 °F
Feels Like 56.8 °F
N
5.8
Wind Variable Wind from East

Today
High -- | Low -- °F
--% Chance of Precip.
Yesterday
High -- | Low -- °F
Precip. -- in
6:54 AM 5:07 PM
Waning Crescent, 14% visible
Pressure 30.17 in
Visibility 10.0 miles
Clouds Scattered Clouds 12000 ft
Dew Point 51 °F
Humidity 82%
Rainfall 0.00 in
Snow Depth Not available.
UV 1 out of 12
Pollen 4.20 out of 12
Air Quality Not available.
Flu Activity Not available.
METAR KL38 181415Z AUTO 10003KT 10SM SCT120 12/11 A3017 RMK AO2 T01210110

More Conditions Fewer Conditions

Pressure 30.17 in
Visibility 10.0 miles
Clouds Scattered Clouds 12000 ft
Dew Point 51 °F
Humidity 82%
Rainfall 0.00 in
Snow Depth Not available.
UV 1 out of 12
Pollen 4.20 out of 12
Air Quality Not available.
Flu Activity Not available.
METAR KL38 181415Z AUTO 10003KT 10SM SCT120 12/11 A3017 RMK AO2 T01210110

More Conditions Fewer Conditions

10-Day Weather Forecast

Almanac

Astronomy

Dec. 18, 2014 Rise Set
Actual Time
Civil Twilight
Nautical Twilight
Astronomical Twilight
Moon
Length of Visible Light
Length of Day
Tomorrow will be .
, % of the Moon is Illuminated

Today's Extremes

State Highs State Lows

Community

WunderPhotos

Upload Photos

1,778,929 photos uploaded!

WunderBlogs® & News

Nearby

Air Quality

  Air Quality AQ Index Pollutant
Not available.

Snow Depth

Station Depth Elevation

Earthquake Activity

City Distance Mag. Time & Date
Minimum magnitude displayed is 2.5.

Coastal Water Temperatures

Place Temperature

Nearby Weather Stations